sensor_id;sensor_type;location;lat;lon;timestamp;P1;durP1;ratioP1;P2;durP2;ratioP2
17858;SDS011;35426;30.698;104.050;2022-10-22T00:00:53;158.77;;;80.90;;
17858;SDS011;35426;30.698;104.050;2022-10-22T00:03:29;151.67;;;76.00;;
17858;SDS011;35426;30.698;104.050;2022-10-22T00:06:03;151.37;;;76.67;;
17858;SDS011;35426;30.698;104.050;2022-10-22T00:08:38;148.63;;;72.40;;
17858;SDS011;35426;30.698;104.050;2022-10-22T00:11:13;144.93;;;73.20;;
17858;SDS011;35426;30.698;104.050;2022-10-22T00:13:48;141.33;;;70.57;;
17858;SDS011;35426;30.698;104.050;2022-10-22T00:16:22;141.93;;;72.20;;
17858;SDS011;35426;30.698;104.050;2022-10-22T00:18:59;137.57;;;71.60;;
17858;SDS011;35426;30.698;104.050;2022-10-22T00:21:37;147.97;;;70.67;;
17858;SDS011;35426;30.698;104.050;2022-10-22T00:24:14;142.00;;;70.17;;
17858;SDS011;35426;30.698;104.050;2022-10-22T00:26:48;137.57;;;68.00;;
17858;SDS011;35426;30.698;104.050;2022-10-22T00:29:22;133.70;;;69.57;;
17858;SDS011;35426;30.698;104.050;2022-10-22T00:31:59;134.47;;;69.67;;
17858;SDS011;35426;30.698;104.050;2022-10-22T00:34:35;125.80;;;64.93;;
17858;SDS011;35426;30.698;104.050;2022-10-22T00:37:09;127.13;;;66.17;;
17858;SDS011;35426;30.698;104.050;2022-10-22T00:39:44;134.53;;;66.87;;
17858;SDS011;35426;30.698;104.050;2022-10-22T00:42:23;141.77;;;72.10;;
17858;SDS011;35426;30.698;104.050;2022-10-22T00:45:04;136.67;;;70.77;;
17858;SDS011;35426;30.698;104.050;2022-10-22T00:47:51;137.40;;;73.33;;
17858;SDS011;35426;30.698;104.050;2022-10-22T00:50:31;133.47;;;72.73;;
17858;SDS011;35426;30.698;104.050;2022-10-22T00:53:09;144.97;;;73.87;;
17858;SDS011;35426;30.698;104.050;2022-10-22T00:55:46;139.77;;;75.60;;
17858;SDS011;35426;30.698;104.050;2022-10-22T00:58:23;146.43;;;80.03;;
17858;SDS011;35426;30.698;104.050;2022-10-22T01:01:01;155.93;;;79.90;;
17858;SDS011;35426;30.698;104.050;2022-10-22T01:03:36;147.67;;;79.93;;
17858;SDS011;35426;30.698;104.050;2022-10-22T01:06:13;137.77;;;73.73;;
17858;SDS011;35426;30.698;104.050;2022-10-22T01:08:56;141.20;;;76.17;;
17858;SDS011;35426;30.698;104.050;2022-10-22T01:11:47;147.83;;;79.77;;
17858;SDS011;35426;30.698;104.050;2022-10-22T01:14:31;158.30;;;82.07;;
17858;SDS011;35426;30.698;104.050;2022-10-22T01:17:13;161.50;;;80.50;;
17858;SDS011;35426;30.698;104.050;2022-10-22T01:20:00;141.33;;;78.70;;
17858;SDS011;35426;30.698;104.050;2022-10-22T01:22:46;150.03;;;78.43;;
17858;SDS011;35426;30.698;104.050;2022-10-22T01:25:33;138.23;;;78.30;;
17858;SDS011;35426;30.698;104.050;2022-10-22T01:28:10;136.50;;;77.20;;
17858;SDS011;35426;30.698;104.050;2022-10-22T01:30:57;145.57;;;79.63;;
17858;SDS011;35426;30.698;104.050;2022-10-22T01:33:36;143.87;;;79.90;;
17858;SDS011;35426;30.698;104.050;2022-10-22T01:36:13;140.93;;;78.40;;
17858;SDS011;35426;30.698;104.050;2022-10-22T01:38:49;139.57;;;79.90;;
17858;SDS011;35426;30.698;104.050;2022-10-22T01:41:26;147.00;;;79.70;;
17858;SDS011;35426;30.698;104.050;2022-10-22T01:44:01;138.53;;;79.27;;
17858;SDS011;35426;30.698;104.050;2022-10-22T01:46:38;140.73;;;80.40;;
17858;SDS011;35426;30.698;104.050;2022-10-22T01:49:14;142.30;;;79.03;;
17858;SDS011;35426;30.698;104.050;2022-10-22T01:51:56;143.50;;;82.43;;
17858;SDS011;35426;30.698;104.050;2022-10-22T01:54:44;145.97;;;79.90;;
17858;SDS011;35426;30.698;104.050;2022-10-22T01:57:30;136.67;;;80.90;;
17858;SDS011;35426;30.698;104.050;2022-10-22T02:00:14;125.30;;;71.60;;
17858;SDS011;35426;30.698;104.050;2022-10-22T02:02:53;137.80;;;77.97;;
17858;SDS011;35426;30.698;104.050;2022-10-22T02:05:32;125.10;;;72.57;;
17858;SDS011;35426;30.698;104.050;2022-10-22T02:08:12;119.40;;;68.33;;
17858;SDS011;35426;30.698;104.050;2022-10-22T02:10:49;118.30;;;66.93;;
17858;SDS011;35426;30.698;104.050;2022-10-22T02:13:27;124.82;;;71.53;;
17858;SDS011;35426;30.698;104.050;2022-10-22T02:16:07;136.33;;;74.87;;
17858;SDS011;35426;30.698;104.050;2022-10-22T02:19:01;133.67;;;71.53;;
17858;SDS011;35426;30.698;104.050;2022-10-22T02:21:39;125.43;;;70.57;;
17858;SDS011;35426;30.698;104.050;2022-10-22T02:24:14;130.98;;;72.90;;
17858;SDS011;35426;30.698;104.050;2022-10-22T02:26:51;125.78;;;71.85;;
17858;SDS011;35426;30.698;104.050;2022-10-22T02:29:31;129.98;;;70.85;;
17858;SDS011;35426;30.698;104.050;2022-10-22T02:32:11;130.85;;;73.47;;
17858;SDS011;35426;30.698;104.050;2022-10-22T02:34:55;130.93;;;71.72;;
17858;SDS011;35426;30.698;104.050;2022-10-22T02:37:31;129.27;;;71.30;;
17858;SDS011;35426;30.698;104.050;2022-10-22T02:40:06;132.52;;;72.82;;
17858;SDS011;35426;30.698;104.050;2022-10-22T02:42:41;132.65;;;72.85;;
17858;SDS011;35426;30.698;104.050;2022-10-22T02:45:18;131.98;;;72.55;;
17858;SDS011;35426;30.698;104.050;2022-10-22T02:47:56;132.25;;;74.25;;
17858;SDS011;35426;30.698;104.050;2022-10-22T02:50:31;131.75;;;75.55;;
17858;SDS011;35426;30.698;104.050;2022-10-22T02:53:08;133.88;;;73.97;;
17858;SDS011;35426;30.698;104.050;2022-10-22T02:55:43;125.88;;;72.60;;
17858;SDS011;35426;30.698;104.050;2022-10-22T02:58:17;139.82;;;73.28;;
17858;SDS011;35426;30.698;104.050;2022-10-22T03:00:52;138.30;;;73.80;;
17858;SDS011;35426;30.698;104.050;2022-10-22T03:03:29;141.07;;;74.47;;
17858;SDS011;35426;30.698;104.050;2022-10-22T03:06:06;134.98;;;74.75;;
17858;SDS011;35426;30.698;104.050;2022-10-22T03:08:42;129.55;;;74.47;;
17858;SDS011;35426;30.698;104.050;2022-10-22T03:11:18;125.68;;;71.18;;
17858;SDS011;35426;30.698;104.050;2022-10-22T03:13:54;131.50;;;72.63;;
17858;SDS011;35426;30.698;104.050;2022-10-22T03:16:28;137.20;;;72.68;;
17858;SDS011;35426;30.698;104.050;2022-10-22T03:19:07;131.75;;;69.78;;
17858;SDS011;35426;30.698;104.050;2022-10-22T03:21:44;129.23;;;71.60;;
17858;SDS011;35426;30.698;104.050;2022-10-22T03:24:23;122.20;;;72.40;;
17858;SDS011;35426;30.698;104.050;2022-10-22T03:27:00;134.02;;;69.32;;
17858;SDS011;35426;30.698;104.050;2022-10-22T03:29:36;120.40;;;68.93;;
17858;SDS011;35426;30.698;104.050;2022-10-22T03:32:14;128.70;;;69.43;;
17858;SDS011;35426;30.698;104.050;2022-10-22T03:34:53;127.00;;;70.00;;
17858;SDS011;35426;30.698;104.050;2022-10-22T03:37:34;129.30;;;67.63;;
17858;SDS011;35426;30.698;104.050;2022-10-22T03:40:10;122.27;;;69.70;;
17858;SDS011;35426;30.698;104.050;2022-10-22T03:42:46;119.38;;;64.97;;
17858;SDS011;35426;30.698;104.050;2022-10-22T03:45:26;127.97;;;68.67;;
17858;SDS011;35426;30.698;104.050;2022-10-22T03:48:02;133.27;;;68.13;;
17858;SDS011;35426;30.698;104.050;2022-10-22T03:50:37;109.63;;;64.13;;
17858;SDS011;35426;30.698;104.050;2022-10-22T03:53:13;120.75;;;65.38;;
17858;SDS011;35426;30.698;104.050;2022-10-22T03:55:47;121.20;;;66.18;;
17858;SDS011;35426;30.698;104.050;2022-10-22T03:58:23;111.80;;;64.03;;
17858;SDS011;35426;30.698;104.050;2022-10-22T04:01:03;120.97;;;63.03;;
17858;SDS011;35426;30.698;104.050;2022-10-22T04:03:41;113.43;;;61.37;;
17858;SDS011;35426;30.698;104.050;2022-10-22T04:06:18;111.60;;;62.43;;
17858;SDS011;35426;30.698;104.050;2022-10-22T04:08:55;115.37;;;63.67;;
17858;SDS011;35426;30.698;104.050;2022-10-22T04:11:31;118.23;;;62.07;;
17858;SDS011;35426;30.698;104.050;2022-10-22T04:14:05;113.13;;;58.80;;
17858;SDS011;35426;30.698;104.050;2022-10-22T04:16:42;111.50;;;60.10;;
17858;SDS011;35426;30.698;104.050;2022-10-22T04:19:17;108.33;;;61.17;;
17858;SDS011;35426;30.698;104.050;2022-10-22T04:21:52;117.87;;;63.37;;
17858;SDS011;35426;30.698;104.050;2022-10-22T04:24:31;116.10;;;59.20;;
17858;SDS011;35426;30.698;104.050;2022-10-22T04:27:06;124.70;;;60.90;;
17858;SDS011;35426;30.698;104.050;2022-10-22T04:29:40;121.70;;;61.90;;
17858;SDS011;35426;30.698;104.050;2022-10-22T04:32:20;115.53;;;61.33;;
17858;SDS011;35426;30.698;104.050;2022-10-22T04:34:54;120.17;;;61.43;;
17858;SDS011;35426;30.698;104.050;2022-10-22T04:37:31;113.57;;;61.23;;
17858;SDS011;35426;30.698;104.050;2022-10-22T04:40:09;115.27;;;58.90;;
17858;SDS011;35426;30.698;104.050;2022-10-22T04:43:03;119.10;;;59.27;;
17858;SDS011;35426;30.698;104.050;2022-10-22T04:45:38;112.17;;;57.07;;
17858;SDS011;35426;30.698;104.050;2022-10-22T04:48:16;112.57;;;55.23;;
17858;SDS011;35426;30.698;104.050;2022-10-22T04:50:52;98.63;;;50.37;;
17858;SDS011;35426;30.698;104.050;2022-10-22T04:53:28;98.30;;;52.50;;
17858;SDS011;35426;30.698;104.050;2022-10-22T04:56:15;101.60;;;51.17;;
17858;SDS011;35426;30.698;104.050;2022-10-22T04:58:55;97.17;;;49.47;;
17858;SDS011;35426;30.698;104.050;2022-10-22T05:01:33;92.67;;;50.47;;
17858;SDS011;35426;30.698;104.050;2022-10-22T05:04:11;93.53;;;49.47;;
17858;SDS011;35426;30.698;104.050;2022-10-22T05:06:48;95.93;;;51.50;;
17858;SDS011;35426;30.698;104.050;2022-10-22T05:09:26;99.90;;;50.87;;
17858;SDS011;35426;30.698;104.050;2022-10-22T05:12:03;88.77;;;46.47;;
17858;SDS011;35426;30.698;104.050;2022-10-22T05:14:37;88.13;;;48.03;;
17858;SDS011;35426;30.698;104.050;2022-10-22T05:17:13;104.90;;;52.63;;
17858;SDS011;35426;30.698;104.050;2022-10-22T05:20:02;93.27;;;47.10;;
17858;SDS011;35426;30.698;104.050;2022-10-22T05:22:38;96.17;;;49.27;;
17858;SDS011;35426;30.698;104.050;2022-10-22T05:25:16;108.77;;;52.97;;
17858;SDS011;35426;30.698;104.050;2022-10-22T05:27:54;100.43;;;50.63;;
17858;SDS011;35426;30.698;104.050;2022-10-22T05:30:29;88.63;;;45.10;;
17858;SDS011;35426;30.698;104.050;2022-10-22T05:33:05;93.17;;;45.27;;
17858;SDS011;35426;30.698;104.050;2022-10-22T05:35:40;100.77;;;46.63;;
17858;SDS011;35426;30.698;104.050;2022-10-22T05:38:16;88.53;;;45.00;;
17858;SDS011;35426;30.698;104.050;2022-10-22T05:41:02;90.70;;;45.70;;
17858;SDS011;35426;30.698;104.050;2022-10-22T05:43:42;90.37;;;45.83;;
17858;SDS011;35426;30.698;104.050;2022-10-22T05:46:19;71.20;;;39.20;;
17858;SDS011;35426;30.698;104.050;2022-10-22T05:48:57;83.37;;;41.70;;
17858;SDS011;35426;30.698;104.050;2022-10-22T05:51:34;74.60;;;39.63;;
17858;SDS011;35426;30.698;104.050;2022-10-22T05:54:14;90.80;;;46.10;;
17858;SDS011;35426;30.698;104.050;2022-10-22T05:56:51;80.20;;;44.27;;
17858;SDS011;35426;30.698;104.050;2022-10-22T05:59:28;82.63;;;41.60;;
17858;SDS011;35426;30.698;104.050;2022-10-22T06:02:07;69.10;;;37.30;;
17858;SDS011;35426;30.698;104.050;2022-10-22T06:04:46;61.22;;;33.95;;
17858;SDS011;35426;30.698;104.050;2022-10-22T06:07:25;76.57;;;38.00;;
17858;SDS011;35426;30.698;104.050;2022-10-22T06:10:01;70.80;;;34.47;;
17858;SDS011;35426;30.698;104.050;2022-10-22T06:12:37;69.30;;;33.60;;
17858;SDS011;35426;30.698;104.050;2022-10-22T06:15:15;64.07;;;32.67;;
17858;SDS011;35426;30.698;104.050;2022-10-22T06:17:51;61.40;;;32.47;;
17858;SDS011;35426;30.698;104.050;2022-10-22T06:20:46;62.13;;;31.87;;
17858;SDS011;35426;30.698;104.050;2022-10-22T06:23:30;63.83;;;34.73;;
17858;SDS011;35426;30.698;104.050;2022-10-22T06:26:05;81.67;;;41.63;;
17858;SDS011;35426;30.698;104.050;2022-10-22T06:28:40;92.20;;;44.23;;
17858;SDS011;35426;30.698;104.050;2022-10-22T06:31:17;83.30;;;40.93;;
17858;SDS011;35426;30.698;104.050;2022-10-22T06:33:51;85.17;;;41.20;;
17858;SDS011;35426;30.698;104.050;2022-10-22T06:36:31;81.83;;;38.87;;
17858;SDS011;35426;30.698;104.050;2022-10-22T06:39:06;77.97;;;38.10;;
17858;SDS011;35426;30.698;104.050;2022-10-22T06:41:50;76.77;;;35.73;;
17858;SDS011;35426;30.698;104.050;2022-10-22T06:44:24;64.70;;;34.00;;
17858;SDS011;35426;30.698;104.050;2022-10-22T06:47:00;66.27;;;34.40;;
17858;SDS011;35426;30.698;104.050;2022-10-22T06:49:37;66.00;;;33.07;;
17858;SDS011;35426;30.698;104.050;2022-10-22T06:52:12;58.37;;;31.60;;
17858;SDS011;35426;30.698;104.050;2022-10-22T06:54:57;60.07;;;32.23;;
17858;SDS011;35426;30.698;104.050;2022-10-22T06:57:34;64.27;;;32.67;;
17858;SDS011;35426;30.698;104.050;2022-10-22T07:00:09;76.50;;;34.23;;
17858;SDS011;35426;30.698;104.050;2022-10-22T07:02:52;60.07;;;30.70;;
17858;SDS011;35426;30.698;104.050;2022-10-22T07:05:26;50.40;;;26.53;;
17858;SDS011;35426;30.698;104.050;2022-10-22T07:08:06;62.70;;;29.90;;
17858;SDS011;35426;30.698;104.050;2022-10-22T07:10:41;71.60;;;34.70;;
17858;SDS011;35426;30.698;104.050;2022-10-22T07:13:19;72.37;;;36.63;;
17858;SDS011;35426;30.698;104.050;2022-10-22T07:15:53;67.77;;;34.97;;
17858;SDS011;35426;30.698;104.050;2022-10-22T07:18:33;64.83;;;32.97;;
17858;SDS011;35426;30.698;104.050;2022-10-22T07:21:11;68.50;;;34.00;;
17858;SDS011;35426;30.698;104.050;2022-10-22T07:23:46;69.97;;;35.90;;
17858;SDS011;35426;30.698;104.050;2022-10-22T07:26:21;57.23;;;32.43;;
17858;SDS011;35426;30.698;104.050;2022-10-22T07:28:59;66.53;;;34.00;;
17858;SDS011;35426;30.698;104.050;2022-10-22T07:31:36;64.33;;;33.87;;
17858;SDS011;35426;30.698;104.050;2022-10-22T07:34:15;64.77;;;33.03;;
17858;SDS011;35426;30.698;104.050;2022-10-22T07:36:50;70.73;;;34.73;;
17858;SDS011;35426;30.698;104.050;2022-10-22T07:39:25;66.17;;;35.00;;
17858;SDS011;35426;30.698;104.050;2022-10-22T07:42:00;64.83;;;33.10;;
17858;SDS011;35426;30.698;104.050;2022-10-22T07:44:37;64.40;;;34.53;;
17858;SDS011;35426;30.698;104.050;2022-10-22T07:47:11;71.97;;;34.83;;
17858;SDS011;35426;30.698;104.050;2022-10-22T07:49:50;70.73;;;35.27;;
17858;SDS011;35426;30.698;104.050;2022-10-22T07:52:25;70.23;;;33.83;;
17858;SDS011;35426;30.698;104.050;2022-10-22T07:55:02;58.47;;;30.60;;
17858;SDS011;35426;30.698;104.050;2022-10-22T07:57:41;68.03;;;32.57;;
17858;SDS011;35426;30.698;104.050;2022-10-22T08:00:17;68.13;;;32.47;;
17858;SDS011;35426;30.698;104.050;2022-10-22T08:02:57;63.73;;;34.80;;
17858;SDS011;35426;30.698;104.050;2022-10-22T08:05:35;64.27;;;32.90;;
17858;SDS011;35426;30.698;104.050;2022-10-22T08:08:12;59.17;;;32.03;;
17858;SDS011;35426;30.698;104.050;2022-10-22T08:10:54;53.30;;;30.93;;
17858;SDS011;35426;30.698;104.050;2022-10-22T08:13:30;57.57;;;30.10;;
17858;SDS011;35426;30.698;104.050;2022-10-22T08:16:08;61.93;;;30.90;;
17858;SDS011;35426;30.698;104.050;2022-10-22T08:18:46;54.63;;;28.80;;
17858;SDS011;35426;30.698;104.050;2022-10-22T08:21:28;58.57;;;29.10;;
17858;SDS011;35426;30.698;104.050;2022-10-22T08:24:09;49.23;;;29.10;;
17858;SDS011;35426;30.698;104.050;2022-10-22T08:26:46;48.77;;;28.57;;
17858;SDS011;35426;30.698;104.050;2022-10-22T08:29:24;56.07;;;28.93;;
17858;SDS011;35426;30.698;104.050;2022-10-22T08:32:00;59.23;;;31.40;;
17858;SDS011;35426;30.698;104.050;2022-10-22T08:34:36;67.50;;;33.27;;
17858;SDS011;35426;30.698;104.050;2022-10-22T08:37:15;67.27;;;32.13;;
17858;SDS011;35426;30.698;104.050;2022-10-22T08:39:51;58.60;;;31.20;;
17858;SDS011;35426;30.698;104.050;2022-10-22T08:42:30;64.13;;;31.27;;
17858;SDS011;35426;30.698;104.050;2022-10-22T08:45:33;59.20;;;30.97;;
17858;SDS011;35426;30.698;104.050;2022-10-22T08:48:19;63.90;;;31.50;;
17858;SDS011;35426;30.698;104.050;2022-10-22T08:51:06;53.77;;;30.83;;
17858;SDS011;35426;30.698;104.050;2022-10-22T08:54:01;60.20;;;30.87;;
17858;SDS011;35426;30.698;104.050;2022-10-22T08:56:46;61.07;;;31.47;;
17858;SDS011;35426;30.698;104.050;2022-10-22T08:59:27;56.37;;;31.30;;
17858;SDS011;35426;30.698;104.050;2022-10-22T09:02:10;59.83;;;30.40;;
17858;SDS011;35426;30.698;104.050;2022-10-22T09:04:55;52.27;;;28.23;;
17858;SDS011;35426;30.698;104.050;2022-10-22T09:07:44;56.53;;;29.60;;
17858;SDS011;35426;30.698;104.050;2022-10-22T09:10:21;58.27;;;31.33;;
17858;SDS011;35426;30.698;104.050;2022-10-22T09:13:00;54.40;;;30.07;;
17858;SDS011;35426;30.698;104.050;2022-10-22T09:15:44;56.00;;;31.73;;
17858;SDS011;35426;30.698;104.050;2022-10-22T09:18:28;51.63;;;29.83;;
17858;SDS011;35426;30.698;104.050;2022-10-22T09:21:11;47.67;;;27.47;;
17858;SDS011;35426;30.698;104.050;2022-10-22T09:23:57;51.40;;;28.93;;
17858;SDS011;35426;30.698;104.050;2022-10-22T09:26:43;50.20;;;28.80;;
17858;SDS011;35426;30.698;104.050;2022-10-22T09:29:19;48.70;;;28.53;;
17858;SDS011;35426;30.698;104.050;2022-10-22T09:32:07;57.37;;;28.90;;
17858;SDS011;35426;30.698;104.050;2022-10-22T09:34:41;53.90;;;30.63;;
17858;SDS011;35426;30.698;104.050;2022-10-22T09:37:17;51.67;;;29.77;;
17858;SDS011;35426;30.698;104.050;2022-10-22T09:39:56;54.10;;;27.97;;
17858;SDS011;35426;30.698;104.050;2022-10-22T09:42:37;49.60;;;29.83;;
17858;SDS011;35426;30.698;104.050;2022-10-22T09:45:19;50.90;;;28.90;;
17858;SDS011;35426;30.698;104.050;2022-10-22T09:48:02;54.87;;;28.77;;
17858;SDS011;35426;30.698;104.050;2022-10-22T09:50:43;46.50;;;27.90;;
17858;SDS011;35426;30.698;104.050;2022-10-22T09:53:19;51.27;;;29.00;;
17858;SDS011;35426;30.698;104.050;2022-10-22T09:55:57;45.83;;;28.00;;
17858;SDS011;35426;30.698;104.050;2022-10-22T09:58:44;56.73;;;28.80;;
17858;SDS011;35426;30.698;104.050;2022-10-22T10:01:24;60.77;;;28.70;;
17858;SDS011;35426;30.698;104.050;2022-10-22T10:04:01;51.27;;;27.30;;
17858;SDS011;35426;30.698;104.050;2022-10-22T10:06:51;49.87;;;27.87;;
17858;SDS011;35426;30.698;104.050;2022-10-22T10:09:27;43.93;;;26.47;;
17858;SDS011;35426;30.698;104.050;2022-10-22T10:12:07;51.70;;;28.37;;
17858;SDS011;35426;30.698;104.050;2022-10-22T10:15:00;51.17;;;27.27;;
17858;SDS011;35426;30.698;104.050;2022-10-22T10:17:41;52.57;;;27.93;;
17858;SDS011;35426;30.698;104.050;2022-10-22T10:20:26;50.13;;;26.07;;
17858;SDS011;35426;30.698;104.050;2022-10-22T10:23:14;48.80;;;26.57;;
17858;SDS011;35426;30.698;104.050;2022-10-22T10:26:01;49.37;;;25.77;;
17858;SDS011;35426;30.698;104.050;2022-10-22T10:28:47;45.27;;;26.17;;
17858;SDS011;35426;30.698;104.050;2022-10-22T10:31:36;50.83;;;27.10;;
17858;SDS011;35426;30.698;104.050;2022-10-22T10:34:26;57.50;;;27.23;;
17858;SDS011;35426;30.698;104.050;2022-10-22T10:37:10;47.23;;;27.07;;
17858;SDS011;35426;30.698;104.050;2022-10-22T10:40:13;50.63;;;28.30;;
17858;SDS011;35426;30.698;104.050;2022-10-22T10:42:55;50.50;;;26.60;;
17858;SDS011;35426;30.698;104.050;2022-10-22T10:45:35;52.43;;;27.80;;
17858;SDS011;35426;30.698;104.050;2022-10-22T10:48:21;45.37;;;26.83;;
17858;SDS011;35426;30.698;104.050;2022-10-22T10:51:17;45.37;;;27.33;;
17858;SDS011;35426;30.698;104.050;2022-10-22T10:54:14;48.10;;;27.47;;
17858;SDS011;35426;30.698;104.050;2022-10-22T10:57:08;53.40;;;28.70;;
17858;SDS011;35426;30.698;104.050;2022-10-22T11:00:01;51.20;;;29.13;;
17858;SDS011;35426;30.698;104.050;2022-10-22T11:02:52;47.83;;;28.53;;
17858;SDS011;35426;30.698;104.050;2022-10-22T11:05:55;52.20;;;28.33;;
17858;SDS011;35426;30.698;104.050;2022-10-22T11:08:31;50.10;;;28.20;;
17858;SDS011;35426;30.698;104.050;2022-10-22T11:11:11;53.77;;;29.17;;
17858;SDS011;35426;30.698;104.050;2022-10-22T11:13:54;50.97;;;28.87;;
17858;SDS011;35426;30.698;104.050;2022-10-22T11:16:33;57.37;;;28.40;;
17858;SDS011;35426;30.698;104.050;2022-10-22T11:19:14;57.83;;;31.97;;
17858;SDS011;35426;30.698;104.050;2022-10-22T11:22:15;54.37;;;29.33;;
17858;SDS011;35426;30.698;104.050;2022-10-22T11:24:58;52.17;;;30.70;;
17858;SDS011;35426;30.698;104.050;2022-10-22T11:27:46;64.40;;;32.50;;
17858;SDS011;35426;30.698;104.050;2022-10-22T11:30:29;55.60;;;31.23;;
17858;SDS011;35426;30.698;104.050;2022-10-22T11:33:08;55.70;;;31.73;;
17858;SDS011;35426;30.698;104.050;2022-10-22T11:35:46;56.27;;;32.33;;
17858;SDS011;35426;30.698;104.050;2022-10-22T11:38:28;56.87;;;29.43;;
17858;SDS011;35426;30.698;104.050;2022-10-22T11:41:05;54.07;;;28.30;;
17858;SDS011;35426;30.698;104.050;2022-10-22T11:43:57;55.33;;;29.03;;
17858;SDS011;35426;30.698;104.050;2022-10-22T11:46:44;62.10;;;32.07;;
17858;SDS011;35426;30.698;104.050;2022-10-22T11:49:27;64.87;;;33.10;;
17858;SDS011;35426;30.698;104.050;2022-10-22T11:52:23;63.00;;;33.17;;
17858;SDS011;35426;30.698;104.050;2022-10-22T11:58:26;63.73;;;31.60;;
17858;SDS011;35426;30.698;104.050;2022-10-22T12:01:20;63.27;;;32.53;;
17858;SDS011;35426;30.698;104.050;2022-10-22T12:04:21;63.40;;;30.53;;
17858;SDS011;35426;30.698;104.050;2022-10-22T12:07:27;64.00;;;32.27;;
17858;SDS011;35426;30.698;104.050;2022-10-22T12:10:10;57.43;;;30.17;;
17858;SDS011;35426;30.698;104.050;2022-10-22T12:12:57;59.20;;;31.63;;
17858;SDS011;35426;30.698;104.050;2022-10-22T12:15:40;55.47;;;31.17;;
17858;SDS011;35426;30.698;104.050;2022-10-22T12:18:24;57.97;;;32.97;;
17858;SDS011;35426;30.698;104.050;2022-10-22T12:21:02;59.80;;;32.57;;
17858;SDS011;35426;30.698;104.050;2022-10-22T12:23:38;62.57;;;32.50;;
17858;SDS011;35426;30.698;104.050;2022-10-22T12:26:24;69.80;;;35.40;;
17858;SDS011;35426;30.698;104.050;2022-10-22T12:29:02;62.13;;;34.50;;
17858;SDS011;35426;30.698;104.050;2022-10-22T12:31:43;66.40;;;34.30;;
17858;SDS011;35426;30.698;104.050;2022-10-22T12:34:23;72.83;;;36.07;;
17858;SDS011;35426;30.698;104.050;2022-10-22T12:37:02;71.50;;;36.47;;
17858;SDS011;35426;30.698;104.050;2022-10-22T12:39:37;64.77;;;35.60;;
17858;SDS011;35426;30.698;104.050;2022-10-22T12:42:17;67.67;;;35.00;;
17858;SDS011;35426;30.698;104.050;2022-10-22T12:44:55;66.10;;;35.27;;
17858;SDS011;35426;30.698;104.050;2022-10-22T12:47:31;61.97;;;35.17;;
17858;SDS011;35426;30.698;104.050;2022-10-22T12:50:13;63.53;;;33.87;;
17858;SDS011;35426;30.698;104.050;2022-10-22T12:52:54;54.97;;;32.53;;
17858;SDS011;35426;30.698;104.050;2022-10-22T12:55:30;56.93;;;33.57;;
17858;SDS011;35426;30.698;104.050;2022-10-22T12:58:31;51.27;;;32.83;;
17858;SDS011;35426;30.698;104.050;2022-10-22T13:01:13;56.07;;;33.20;;
17858;SDS011;35426;30.698;104.050;2022-10-22T13:04:05;59.83;;;33.50;;
17858;SDS011;35426;30.698;104.050;2022-10-22T13:07:02;56.67;;;31.93;;
17858;SDS011;35426;30.698;104.050;2022-10-22T13:09:39;57.57;;;32.07;;
17858;SDS011;35426;30.698;104.050;2022-10-22T13:12:15;57.40;;;33.27;;
17858;SDS011;35426;30.698;104.050;2022-10-22T13:15:16;60.83;;;33.33;;
17858;SDS011;35426;30.698;104.050;2022-10-22T13:18:02;63.50;;;34.80;;
17858;SDS011;35426;30.698;104.050;2022-10-22T13:20:50;64.20;;;35.30;;
17858;SDS011;35426;30.698;104.050;2022-10-22T13:23:31;59.70;;;33.23;;
17858;SDS011;35426;30.698;104.050;2022-10-22T13:26:18;64.53;;;34.77;;
17858;SDS011;35426;30.698;104.050;2022-10-22T13:28:56;62.37;;;34.30;;
17858;SDS011;35426;30.698;104.050;2022-10-22T13:31:31;60.97;;;34.07;;
17858;SDS011;35426;30.698;104.050;2022-10-22T13:34:15;74.37;;;35.20;;
17858;SDS011;35426;30.698;104.050;2022-10-22T13:36:55;67.57;;;34.07;;
17858;SDS011;35426;30.698;104.050;2022-10-22T13:39:30;61.97;;;35.97;;
17858;SDS011;35426;30.698;104.050;2022-10-22T13:42:15;64.37;;;34.73;;
17858;SDS011;35426;30.698;104.050;2022-10-22T13:44:50;67.93;;;35.57;;
17858;SDS011;35426;30.698;104.050;2022-10-22T13:47:29;65.60;;;34.80;;
17858;SDS011;35426;30.698;104.050;2022-10-22T13:50:10;68.20;;;34.93;;
17858;SDS011;35426;30.698;104.050;2022-10-22T13:52:48;65.40;;;34.93;;
17858;SDS011;35426;30.698;104.050;2022-10-22T13:55:25;61.37;;;34.90;;
17858;SDS011;35426;30.698;104.050;2022-10-22T13:58:05;73.57;;;36.80;;
17858;SDS011;35426;30.698;104.050;2022-10-22T14:00:48;64.27;;;35.00;;
17858;SDS011;35426;30.698;104.050;2022-10-22T14:03:24;68.07;;;36.20;;
17858;SDS011;35426;30.698;104.050;2022-10-22T14:06:04;70.80;;;35.87;;
17858;SDS011;35426;30.698;104.050;2022-10-22T14:08:44;62.60;;;33.93;;
17858;SDS011;35426;30.698;104.050;2022-10-22T14:11:22;64.33;;;36.03;;
17858;SDS011;35426;30.698;104.050;2022-10-22T14:14:00;75.47;;;38.07;;
17858;SDS011;35426;30.698;104.050;2022-10-22T14:16:37;70.80;;;38.83;;
17858;SDS011;35426;30.698;104.050;2022-10-22T14:19:13;67.57;;;36.83;;
17858;SDS011;35426;30.698;104.050;2022-10-22T14:21:50;84.70;;;40.40;;
17858;SDS011;35426;30.698;104.050;2022-10-22T14:24:26;78.60;;;39.03;;
17858;SDS011;35426;30.698;104.050;2022-10-22T14:27:00;80.33;;;38.90;;
17858;SDS011;35426;30.698;104.050;2022-10-22T14:29:38;74.07;;;37.67;;
17858;SDS011;35426;30.698;104.050;2022-10-22T14:32:13;68.30;;;37.70;;
17858;SDS011;35426;30.698;104.050;2022-10-22T14:34:53;77.83;;;38.67;;
17858;SDS011;35426;30.698;104.050;2022-10-22T14:37:32;97.23;;;44.20;;
17858;SDS011;35426;30.698;104.050;2022-10-22T14:40:07;97.37;;;44.77;;
17858;SDS011;35426;30.698;104.050;2022-10-22T14:42:44;93.33;;;44.23;;
17858;SDS011;35426;30.698;104.050;2022-10-22T14:45:24;102.47;;;49.17;;
17858;SDS011;35426;30.698;104.050;2022-10-22T14:48:00;118.97;;;48.67;;
17858;SDS011;35426;30.698;104.050;2022-10-22T14:50:36;110.73;;;49.40;;
17858;SDS011;35426;30.698;104.050;2022-10-22T14:53:13;99.40;;;43.80;;
17858;SDS011;35426;30.698;104.050;2022-10-22T14:55:47;95.33;;;40.90;;
17858;SDS011;35426;30.698;104.050;2022-10-22T14:58:26;93.60;;;42.87;;
17858;SDS011;35426;30.698;104.050;2022-10-22T15:01:06;110.47;;;43.57;;
17858;SDS011;35426;30.698;104.050;2022-10-22T15:03:42;97.97;;;42.13;;
17858;SDS011;35426;30.698;104.050;2022-10-22T15:06:16;105.00;;;42.73;;